sensor_id;sensor_type;location;lat;lon;timestamp;pressure;altitude;pressure_sealevel;temperature;humidity
5679;BME280;2862;52.560;13.566;2023-02-19T00:06:09;100536.94;;;6.57;100.00
5679;BME280;2862;52.560;13.566;2023-02-19T00:16:15;100533.84;;;6.50;100.00
5679;BME280;2862;52.560;13.566;2023-02-19T00:26:18;100528.75;;;6.47;100.00
5679;BME280;2862;52.560;13.566;2023-02-19T00:36:24;100525.34;;;6.32;100.00
5679;BME280;2862;52.560;13.566;2023-02-19T00:46:30;100501.47;;;6.32;100.00
5679;BME280;2862;52.560;13.566;2023-02-19T00:56:35;100516.00;;;6.39;100.00
5679;BME280;2862;52.560;13.566;2023-02-19T01:06:38;100510.50;;;6.43;100.00
5679;BME280;2862;52.560;13.566;2023-02-19T01:16:43;100503.25;;;6.32;100.00
5679;BME280;2862;52.560;13.566;2023-02-19T01:26:46;100489.56;;;6.38;100.00
5679;BME280;2862;52.560;13.566;2023-02-19T01:36:51;100471.59;;;6.42;100.00
5679;BME280;2862;52.560;13.566;2023-02-19T01:46:54;100440.38;;;6.07;100.00
5679;BME280;2862;52.560;13.566;2023-02-19T01:57:03;100444.41;;;6.12;100.00
5679;BME280;2862;52.560;13.566;2023-02-19T02:07:09;100439.34;;;5.97;100.00
5679;BME280;2862;52.560;13.566;2023-02-19T02:17:31;100404.66;;;5.73;100.00
5679;BME280;2862;52.560;13.566;2023-02-19T02:27:46;100417.19;;;5.58;100.00
5679;BME280;2862;52.560;13.566;2023-02-19T02:37:59;100429.44;;;5.33;100.00
5679;BME280;2862;52.560;13.566;2023-02-19T02:48:22;100424.88;;;5.36;100.00
5679;BME280;2862;52.560;13.566;2023-02-19T02:58:30;100425.16;;;5.31;100.00
5679;BME280;2862;52.560;13.566;2023-02-19T03:08:39;100440.91;;;4.93;100.00
5679;BME280;2862;52.560;13.566;2023-02-19T03:18:48;100443.56;;;4.93;100.00
5679;BME280;2862;52.560;13.566;2023-02-19T03:29:10;100461.38;;;4.91;100.00
5679;BME280;2862;52.560;13.566;2023-02-19T03:39:36;100458.97;;;4.59;100.00
5679;BME280;2862;52.560;13.566;2023-02-19T03:49:52;100457.25;;;4.72;100.00
5679;BME280;2862;52.560;13.566;2023-02-19T04:00:03;100474.94;;;4.58;100.00
5679;BME280;2862;52.560;13.566;2023-02-19T04:10:13;100469.56;;;4.31;100.00
5679;BME280;2862;52.560;13.566;2023-02-19T04:20:21;100486.25;;;4.03;100.00
5679;BME280;2862;52.560;13.566;2023-02-19T04:30:25;100498.00;;;3.83;100.00
5679;BME280;2862;52.560;13.566;2023-02-19T04:40:29;100503.03;;;3.87;100.00
5679;BME280;2862;52.560;13.566;2023-02-19T04:50:33;100510.84;;;3.75;100.00
5679;BME280;2862;52.560;13.566;2023-02-19T05:00:38;100520.63;;;3.72;100.00
5679;BME280;2862;52.560;13.566;2023-02-19T05:10:41;100518.53;;;3.63;100.00
5679;BME280;2862;52.560;13.566;2023-02-19T05:20:53;100520.84;;;3.54;100.00
5679;BME280;2862;52.560;13.566;2023-02-19T05:30:57;100516.28;;;3.71;100.00
5679;BME280;2862;52.560;13.566;2023-02-19T05:41:10;100525.00;;;3.73;100.00
5679;BME280;2862;52.560;13.566;2023-02-19T05:51:16;100519.19;;;3.67;100.00
5679;BME280;2862;52.560;13.566;2023-02-19T06:01:22;100528.44;;;3.90;100.00
5679;BME280;2862;52.560;13.566;2023-02-19T06:11:28;100519.66;;;4.19;100.00
5679;BME280;2862;52.560;13.566;2023-02-19T06:21:33;100524.44;;;4.13;100.00
5679;BME280;2862;52.560;13.566;2023-02-19T06:31:36;100533.72;;;4.20;100.00
5679;BME280;2862;52.560;13.566;2023-02-19T06:41:41;100561.13;;;4.19;100.00
5679;BME280;2862;52.560;13.566;2023-02-19T06:51:45;100590.25;;;4.33;100.00
5679;BME280;2862;52.560;13.566;2023-02-19T07:01:49;100594.03;;;4.29;100.00
5679;BME280;2862;52.560;13.566;2023-02-19T07:11:52;100600.81;;;4.19;100.00
5679;BME280;2862;52.560;13.566;2023-02-19T07:21:57;100634.00;;;4.69;100.00
5679;BME280;2862;52.560;13.566;2023-02-19T07:32:01;100642.63;;;5.15;100.00
5679;BME280;2862;52.560;13.566;2023-02-19T07:42:05;100639.91;;;6.66;93.67
5679;BME280;2862;52.560;13.566;2023-02-19T07:52:08;100662.78;;;6.29;88.77
5679;BME280;2862;52.560;13.566;2023-02-19T08:02:16;100678.66;;;6.16;88.23
5679;BME280;2862;52.560;13.566;2023-02-19T08:12:37;100712.69;;;6.63;87.08
5679;BME280;2862;52.560;13.566;2023-02-19T08:22:59;100729.25;;;6.94;85.12
5679;BME280;2862;52.560;13.566;2023-02-19T08:33:04;100756.53;;;6.83;84.02
5679;BME280;2862;52.560;13.566;2023-02-19T08:43:11;100774.56;;;7.43;81.78
5679;BME280;2862;52.560;13.566;2023-02-19T08:53:20;100790.63;;;7.67;80.22
5679;BME280;2862;52.560;13.566;2023-02-19T09:03:28;100810.25;;;7.01;81.30
5679;BME280;2862;52.560;13.566;2023-02-19T09:13:39;100836.31;;;6.69;84.77
5679;BME280;2862;52.560;13.566;2023-02-19T09:24:04;100836.19;;;6.98;80.77
5679;BME280;2862;52.560;13.566;2023-02-19T09:34:31;100854.13;;;6.40;83.52
5679;BME280;2862;52.560;13.566;2023-02-19T09:44:54;100854.63;;;6.59;81.61
5679;BME280;2862;52.560;13.566;2023-02-19T09:55:02;100870.34;;;6.50;80.36
5679;BME280;2862;52.560;13.566;2023-02-19T10:05:11;100885.66;;;6.73;80.08
5679;BME280;2862;52.560;13.566;2023-02-19T10:15:18;100897.31;;;6.98;76.12
5679;BME280;2862;52.560;13.566;2023-02-19T10:25:24;100920.41;;;7.89;75.24
5679;BME280;2862;52.560;13.566;2023-02-19T10:35:28;100935.66;;;7.35;71.66
5679;BME280;2862;52.560;13.566;2023-02-19T10:45:38;100945.69;;;7.57;72.36
5679;BME280;2862;52.560;13.566;2023-02-19T10:55:41;100960.69;;;7.97;71.17
5679;BME280;2862;52.560;13.566;2023-02-19T11:05:58;100982.06;;;7.96;70.61
5679;BME280;2862;52.560;13.566;2023-02-19T11:16:02;100999.66;;;7.46;68.91
5679;BME280;2862;52.560;13.566;2023-02-19T11:26:15;101005.13;;;8.10;66.99
5679;BME280;2862;52.560;13.566;2023-02-19T11:36:24;101012.38;;;8.84;66.62
5679;BME280;2862;52.560;13.566;2023-02-19T11:46:37;101022.19;;;8.58;64.15
5679;BME280;2862;52.560;13.566;2023-02-19T11:56:45;101020.88;;;8.76;62.02
5679;BME280;2862;52.560;13.566;2023-02-19T12:06:58;101026.81;;;8.43;60.43
5679;BME280;2862;52.560;13.566;2023-02-19T12:17:07;101034.28;;;7.98;64.05
5679;BME280;2862;52.560;13.566;2023-02-19T12:27:22;101051.66;;;7.64;60.15
5679;BME280;2862;52.560;13.566;2023-02-19T12:37:34;101056.16;;;8.29;59.82
5679;BME280;2862;52.560;13.566;2023-02-19T12:47:52;101079.47;;;8.25;59.25
5679;BME280;2862;52.560;13.566;2023-02-19T12:57:57;101070.19;;;8.06;58.68
5679;BME280;2862;52.560;13.566;2023-02-19T13:08:06;101086.09;;;7.80;58.37
5679;BME280;2862;52.560;13.566;2023-02-19T13:18:18;101093.84;;;7.56;59.82
5679;BME280;2862;52.560;13.566;2023-02-19T13:28:37;101097.97;;;8.02;60.80
5679;BME280;2862;52.560;13.566;2023-02-19T13:38:45;101104.56;;;8.36;55.74
5679;BME280;2862;52.560;13.566;2023-02-19T13:59:40;101112.97;;;8.03;55.97
5679;BME280;2862;52.560;13.566;2023-02-19T14:09:45;101136.09;;;8.02;56.44
5679;BME280;2862;52.560;13.566;2023-02-19T14:19:54;101145.28;;;7.84;53.92
5679;BME280;2862;52.560;13.566;2023-02-19T14:29:59;101144.28;;;7.72;54.47
5679;BME280;2862;52.560;13.566;2023-02-19T14:40:03;101143.56;;;7.56;55.47
5679;BME280;2862;52.560;13.566;2023-02-19T14:50:12;101142.25;;;7.49;55.14
5679;BME280;2862;52.560;13.566;2023-02-19T15:00:23;101158.50;;;7.58;55.07
5679;BME280;2862;52.560;13.566;2023-02-19T15:10:29;101169.13;;;7.58;54.26
5679;BME280;2862;52.560;13.566;2023-02-19T15:20:41;101166.31;;;7.47;57.05
5679;BME280;2862;52.560;13.566;2023-02-19T15:31:21;101187.94;;;6.98;54.38
5679;BME280;2862;52.560;13.566;2023-02-19T15:52:17;101198.13;;;6.31;55.82
5679;BME280;2862;52.560;13.566;2023-02-19T16:02:24;101211.19;;;6.20;58.33
5679;BME280;2862;52.560;13.566;2023-02-19T16:12:33;101231.22;;;5.94;58.25
5679;BME280;2862;52.560;13.566;2023-02-19T16:22:40;101249.13;;;5.73;60.12
5679;BME280;2862;52.560;13.566;2023-02-19T16:32:46;101266.94;;;5.71;62.13
5679;BME280;2862;52.560;13.566;2023-02-19T16:53:34;101288.44;;;5.33;59.45
5679;BME280;2862;52.560;13.566;2023-02-19T17:03:43;101302.78;;;5.29;61.56
5679;BME280;2862;52.560;13.566;2023-02-19T17:13:50;101303.19;;;5.22;63.76
5679;BME280;2862;52.560;13.566;2023-02-19T17:23:54;101304.50;;;5.13;64.29
5679;BME280;2862;52.560;13.566;2023-02-19T17:33:59;101319.88;;;5.06;63.17
5679;BME280;2862;52.560;13.566;2023-02-19T17:44:30;101315.88;;;4.98;63.61
5679;BME280;2862;52.560;13.566;2023-02-19T17:54:52;101336.63;;;5.07;65.04
5679;BME280;2862;52.560;13.566;2023-02-19T18:04:56;101337.00;;;4.99;66.10
5679;BME280;2862;52.560;13.566;2023-02-19T18:15:01;101345.03;;;4.98;66.66
5679;BME280;2862;52.560;13.566;2023-02-19T18:25:04;101344.56;;;4.90;66.40
5679;BME280;2862;52.560;13.566;2023-02-19T18:35:09;101348.16;;;4.89;68.23
5679;BME280;2862;52.560;13.566;2023-02-19T18:45:12;101363.19;;;4.88;67.87
5679;BME280;2862;52.560;13.566;2023-02-19T18:55:18;101360.75;;;4.84;68.07
5679;BME280;2862;52.560;13.566;2023-02-19T19:05:21;101354.91;;;4.77;69.01
5679;BME280;2862;52.560;13.566;2023-02-19T19:15:26;101363.00;;;4.74;68.68
5679;BME280;2862;52.560;13.566;2023-02-19T19:25:29;101373.50;;;4.75;69.30
5679;BME280;2862;52.560;13.566;2023-02-19T19:35:34;101361.72;;;4.64;69.73
5679;BME280;2862;52.560;13.566;2023-02-19T19:45:37;101360.00;;;4.63;70.29
5679;BME280;2862;52.560;13.566;2023-02-19T19:55:43;101350.13;;;4.66;70.84
5679;BME280;2862;52.560;13.566;2023-02-19T20:05:47;101354.78;;;4.61;71.05
5679;BME280;2862;52.560;13.566;2023-02-19T20:15:52;101352.28;;;4.58;71.37
5679;BME280;2862;52.560;13.566;2023-02-19T20:25:55;101362.53;;;4.47;71.96
5679;BME280;2862;52.560;13.566;2023-02-19T20:36:01;101366.41;;;4.40;72.67
5679;BME280;2862;52.560;13.566;2023-02-19T20:46:03;101374.50;;;4.37;72.96
5679;BME280;2862;52.560;13.566;2023-02-19T20:56:08;101378.00;;;4.37;73.19
5679;BME280;2862;52.560;13.566;2023-02-19T21:06:12;101380.69;;;4.36;73.10
5679;BME280;2862;52.560;13.566;2023-02-19T21:16:16;101387.66;;;4.38;73.58
5679;BME280;2862;52.560;13.566;2023-02-19T21:26:20;101362.25;;;4.34;74.25
5679;BME280;2862;52.560;13.566;2023-02-19T21:36:24;101349.09;;;4.33;75.10
5679;BME280;2862;52.560;13.566;2023-02-19T21:46:28;101332.84;;;4.21;75.99
5679;BME280;2862;52.560;13.566;2023-02-19T21:56:35;101320.91;;;4.13;77.06
5679;BME280;2862;52.560;13.566;2023-02-19T22:06:38;101315.44;;;4.35;77.15
5679;BME280;2862;52.560;13.566;2023-02-19T22:16:43;101290.00;;;4.32;77.92
5679;BME280;2862;52.560;13.566;2023-02-19T22:26:46;101276.22;;;4.25;78.73
5679;BME280;2862;52.560;13.566;2023-02-19T22:36:52;101280.31;;;4.14;79.67
5679;BME280;2862;52.560;13.566;2023-02-19T22:46:55;101294.88;;;4.04;81.07
5679;BME280;2862;52.560;13.566;2023-02-19T22:56:59;101312.28;;;3.90;82.21
5679;BME280;2862;52.560;13.566;2023-02-19T23:07:04;101317.03;;;3.82;83.22
5679;BME280;2862;52.560;13.566;2023-02-19T23:17:08;101314.69;;;3.76;84.36
5679;BME280;2862;52.560;13.566;2023-02-19T23:27:11;101303.16;;;3.77;85.05
5679;BME280;2862;52.560;13.566;2023-02-19T23:37:16;101291.06;;;3.71;85.95
5679;BME280;2862;52.560;13.566;2023-02-19T23:47:19;101270.06;;;3.68;86.65
5679;BME280;2862;52.560;13.566;2023-02-19T23:57:25;101251.84;;;3.62;87.68
